Harbeson, Delaware
Current Conditions -  °F | °C
As of 10:54 PM on Saturday 25 Oct 2014 (Local Time) from KGED Reporting Station
Clear Clear  
Wind Chill: 53°   Ceiling: Unl
Heat Index: 53°   Visibility: 10mi
Dew Point: 46°   Wind: 6mph
Humidity: 77%   Direction: 210°SSW
Pressure: 29.72"   Gusts: NA
Location:  38.72°N, 75.29°W
Report Text: KGED 260254Z AUTO 21005KT 10SM CLR 12/08 A2972 RMK AO2 SLP063 T01170078 58013 $
Loading
Personal Weather Stations






























Interactive Weather Map
Tropical Storm Tracking
New forecast layout! Learn more

10-Day Weather Forecast

Advertisements
Track Severe Weather on mobile